sensor_id;sensor_type;location;lat;lon;timestamp;temperature;humidity
9544;DHT22;30418;51.45933468;7.33152330;2024-02-14T00:00:33;11.00;66.50
9544;DHT22;30418;51.45933468;7.33152330;2024-02-14T00:03:07;11.00;67.30
9544;DHT22;30418;51.45933468;7.33152330;2024-02-14T00:05:36;11.00;66.50
9544;DHT22;30418;51.45933468;7.33152330;2024-02-14T00:08:05;11.00;66.50
9544;DHT22;30418;51.45933468;7.33152330;2024-02-14T00:10:34;11.00;66.60
9544;DHT22;30418;51.45933468;7.33152330;2024-02-14T00:13:03;11.00;66.60
9544;DHT22;30418;51.45933468;7.33152330;2024-02-14T00:15:31;11.00;66.70
9544;DHT22;30418;51.45933468;7.33152330;2024-02-14T00:18:00;11.00;66.60
9544;DHT22;30418;51.45933468;7.33152330;2024-02-14T00:20:30;11.00;66.70
9544;DHT22;30418;51.45933468;7.33152330;2024-02-14T00:22:59;11.00;66.70
9544;DHT22;30418;51.45933468;7.33152330;2024-02-14T00:25:28;11.00;66.70
9544;DHT22;30418;51.45933468;7.33152330;2024-02-14T00:27:58;11.00;66.70
9544;DHT22;30418;51.45933468;7.33152330;2024-02-14T00:30:27;11.00;66.70
9544;DHT22;30418;51.45933468;7.33152330;2024-02-14T00:32:57;11.00;66.70
9544;DHT22;30418;51.45933468;7.33152330;2024-02-14T00:35:26;11.00;66.70
9544;DHT22;30418;51.45933468;7.33152330;2024-02-14T00:37:56;11.00;66.70
9544;DHT22;30418;51.45933468;7.33152330;2024-02-14T00:40:25;11.00;66.60
9544;DHT22;30418;51.45933468;7.33152330;2024-02-14T00:42:54;11.00;66.60
9544;DHT22;30418;51.45933468;7.33152330;2024-02-14T00:45:22;11.00;66.60
9544;DHT22;30418;51.45933468;7.33152330;2024-02-14T00:47:51;11.00;66.70
9544;DHT22;30418;51.45933468;7.33152330;2024-02-14T00:50:19;11.00;66.70
9544;DHT22;30418;51.45933468;7.33152330;2024-02-14T00:52:49;11.00;66.80
9544;DHT22;30418;51.45933468;7.33152330;2024-02-14T00:55:18;11.00;66.80
9544;DHT22;30418;51.45933468;7.33152330;2024-02-14T00:57:47;11.00;66.80
9544;DHT22;30418;51.45933468;7.33152330;2024-02-14T01:00:15;11.00;66.90
9544;DHT22;30418;51.45933468;7.33152330;2024-02-14T01:02:44;11.00;67.00
9544;DHT22;30418;51.45933468;7.33152330;2024-02-14T01:05:14;11.00;67.00
9544;DHT22;30418;51.45933468;7.33152330;2024-02-14T01:07:42;11.00;67.00
9544;DHT22;30418;51.45933468;7.33152330;2024-02-14T01:10:13;11.00;67.00
9544;DHT22;30418;51.45933468;7.33152330;2024-02-14T01:12:43;11.00;67.10
9544;DHT22;30418;51.45933468;7.33152330;2024-02-14T01:15:12;11.00;67.00
9544;DHT22;30418;51.45933468;7.33152330;2024-02-14T01:17:42;11.00;67.10
9544;DHT22;30418;51.45933468;7.33152330;2024-02-14T01:20:12;11.00;67.20
9544;DHT22;30418;51.45933468;7.33152330;2024-02-14T01:22:42;11.00;67.40
9544;DHT22;30418;51.45933468;7.33152330;2024-02-14T01:25:11;11.00;67.50
9544;DHT22;30418;51.45933468;7.33152330;2024-02-14T01:27:40;11.00;67.50
9544;DHT22;30418;51.45933468;7.33152330;2024-02-14T01:30:11;10.90;67.50
9544;DHT22;30418;51.45933468;7.33152330;2024-02-14T01:32:40;10.90;67.60
9544;DHT22;30418;51.45933468;7.33152330;2024-02-14T01:35:08;10.90;67.70
9544;DHT22;30418;51.45933468;7.33152330;2024-02-14T01:37:37;10.90;67.70
9544;DHT22;30418;51.45933468;7.33152330;2024-02-14T01:40:07;10.90;67.80
9544;DHT22;30418;51.45933468;7.33152330;2024-02-14T01:42:36;10.90;67.90
9544;DHT22;30418;51.45933468;7.33152330;2024-02-14T01:45:06;10.90;67.90
9544;DHT22;30418;51.45933468;7.33152330;2024-02-14T01:47:36;10.90;68.10
9544;DHT22;30418;51.45933468;7.33152330;2024-02-14T01:50:09;10.90;68.10
9544;DHT22;30418;51.45933468;7.33152330;2024-02-14T01:52:40;10.90;68.10
9544;DHT22;30418;51.45933468;7.33152330;2024-02-14T01:55:12;10.90;68.10
9544;DHT22;30418;51.45933468;7.33152330;2024-02-14T01:57:40;10.90;68.20
9544;DHT22;30418;51.45933468;7.33152330;2024-02-14T02:00:09;10.90;68.20
9544;DHT22;30418;51.45933468;7.33152330;2024-02-14T02:02:44;10.90;68.20
9544;DHT22;30418;51.45933468;7.33152330;2024-02-14T02:05:18;10.90;68.30
9544;DHT22;30418;51.45933468;7.33152330;2024-02-14T02:07:47;10.90;68.30
9544;DHT22;30418;51.45933468;7.33152330;2024-02-14T02:10:16;10.90;68.30
9544;DHT22;30418;51.45933468;7.33152330;2024-02-14T02:12:45;10.80;68.30
9544;DHT22;30418;51.45933468;7.33152330;2024-02-14T02:15:14;10.90;68.50
9544;DHT22;30418;51.45933468;7.33152330;2024-02-14T02:17:44;10.90;68.60
9544;DHT22;30418;51.45933468;7.33152330;2024-02-14T02:20:19;10.90;68.70
9544;DHT22;30418;51.45933468;7.33152330;2024-02-14T02:22:49;10.80;68.50
9544;DHT22;30418;51.45933468;7.33152330;2024-02-14T02:25:18;10.90;68.80
9544;DHT22;30418;51.45933468;7.33152330;2024-02-14T02:27:50;10.90;68.80
9544;DHT22;30418;51.45933468;7.33152330;2024-02-14T02:30:19;10.90;68.90
9544;DHT22;30418;51.45933468;7.33152330;2024-02-14T02:32:47;10.90;68.90
9544;DHT22;30418;51.45933468;7.33152330;2024-02-14T02:35:18;10.90;68.90
9544;DHT22;30418;51.45933468;7.33152330;2024-02-14T02:37:49;10.90;69.00
9544;DHT22;30418;51.45933468;7.33152330;2024-02-14T02:40:18;10.90;69.00
9544;DHT22;30418;51.45933468;7.33152330;2024-02-14T02:42:48;10.90;69.00
9544;DHT22;30418;51.45933468;7.33152330;2024-02-14T02:45:18;10.90;69.00
9544;DHT22;30418;51.45933468;7.33152330;2024-02-14T02:47:47;10.90;69.00
9544;DHT22;30418;51.45933468;7.33152330;2024-02-14T02:50:17;10.90;69.00
9544;DHT22;30418;51.45933468;7.33152330;2024-02-14T02:52:49;10.90;69.00
9544;DHT22;30418;51.45933468;7.33152330;2024-02-14T02:55:17;10.90;69.10
9544;DHT22;30418;51.45933468;7.33152330;2024-02-14T02:57:46;10.90;69.20
9544;DHT22;30418;51.45933468;7.33152330;2024-02-14T03:00:15;10.90;69.20
9544;DHT22;30418;51.45933468;7.33152330;2024-02-14T03:02:48;10.90;69.30
9544;DHT22;30418;51.45933468;7.33152330;2024-02-14T03:05:16;10.90;69.30
9544;DHT22;30418;51.45933468;7.33152330;2024-02-14T03:07:46;10.90;69.40
9544;DHT22;30418;51.45933468;7.33152330;2024-02-14T03:10:18;10.90;69.40
9544;DHT22;30418;51.45933468;7.33152330;2024-02-14T03:12:48;10.90;69.40
9544;DHT22;30418;51.45933468;7.33152330;2024-02-14T03:15:18;10.90;69.50
9544;DHT22;30418;51.45933468;7.33152330;2024-02-14T03:17:46;11.00;69.60
9544;DHT22;30418;51.45933468;7.33152330;2024-02-14T03:20:15;11.00;69.50
9544;DHT22;30418;51.45933468;7.33152330;2024-02-14T03:22:45;11.00;69.50
9544;DHT22;30418;51.45933468;7.33152330;2024-02-14T03:25:18;11.00;69.50
9544;DHT22;30418;51.45933468;7.33152330;2024-02-14T03:27:47;11.00;69.50
9544;DHT22;30418;51.45933468;7.33152330;2024-02-14T03:30:20;11.00;69.50
9544;DHT22;30418;51.45933468;7.33152330;2024-02-14T03:32:49;11.00;69.60
9544;DHT22;30418;51.45933468;7.33152330;2024-02-14T03:35:19;11.00;69.60
9544;DHT22;30418;51.45933468;7.33152330;2024-02-14T03:37:49;11.00;69.60
9544;DHT22;30418;51.45933468;7.33152330;2024-02-14T03:40:21;11.00;69.70
9544;DHT22;30418;51.45933468;7.33152330;2024-02-14T03:42:49;11.00;69.80
9544;DHT22;30418;51.45933468;7.33152330;2024-02-14T03:45:18;11.00;69.80
9544;DHT22;30418;51.45933468;7.33152330;2024-02-14T03:47:48;11.00;70.60
9544;DHT22;30418;51.45933468;7.33152330;2024-02-14T03:50:16;11.10;70.00
9544;DHT22;30418;51.45933468;7.33152330;2024-02-14T03:52:44;11.10;70.00
9544;DHT22;30418;51.45933468;7.33152330;2024-02-14T03:55:13;11.00;70.00
9544;DHT22;30418;51.45933468;7.33152330;2024-02-14T03:57:46;11.10;70.10
9544;DHT22;30418;51.45933468;7.33152330;2024-02-14T04:00:15;11.10;70.20
9544;DHT22;30418;51.45933468;7.33152330;2024-02-14T04:02:44;11.10;70.20
9544;DHT22;30418;51.45933468;7.33152330;2024-02-14T04:05:16;11.10;70.30
9544;DHT22;30418;51.45933468;7.33152330;2024-02-14T04:07:44;11.10;70.30
9544;DHT22;30418;51.45933468;7.33152330;2024-02-14T04:10:16;11.10;70.40
9544;DHT22;30418;51.45933468;7.33152330;2024-02-14T04:12:46;11.10;70.30
9544;DHT22;30418;51.45933468;7.33152330;2024-02-14T04:15:15;11.10;70.40
9544;DHT22;30418;51.45933468;7.33152330;2024-02-14T04:17:44;11.10;70.40
9544;DHT22;30418;51.45933468;7.33152330;2024-02-14T04:20:13;11.10;70.50
9544;DHT22;30418;51.45933468;7.33152330;2024-02-14T04:22:42;11.10;70.50
9544;DHT22;30418;51.45933468;7.33152330;2024-02-14T04:25:11;11.10;70.60
9544;DHT22;30418;51.45933468;7.33152330;2024-02-14T04:27:40;11.10;70.70
9544;DHT22;30418;51.45933468;7.33152330;2024-02-14T04:30:11;11.10;70.70
9544;DHT22;30418;51.45933468;7.33152330;2024-02-14T04:32:40;11.10;70.80
9544;DHT22;30418;51.45933468;7.33152330;2024-02-14T04:35:10;11.10;70.80
9544;DHT22;30418;51.45933468;7.33152330;2024-02-14T04:37:40;11.10;70.90
9544;DHT22;30418;51.45933468;7.33152330;2024-02-14T04:40:11;11.10;70.90
9544;DHT22;30418;51.45933468;7.33152330;2024-02-14T04:42:40;11.20;71.10
9544;DHT22;30418;51.45933468;7.33152330;2024-02-14T04:45:10;11.10;71.00
9544;DHT22;30418;51.45933468;7.33152330;2024-02-14T04:47:39;11.10;71.10
9544;DHT22;30418;51.45933468;7.33152330;2024-02-14T04:50:09;11.10;71.10
9544;DHT22;30418;51.45933468;7.33152330;2024-02-14T04:52:37;11.10;71.10
9544;DHT22;30418;51.45933468;7.33152330;2024-02-14T04:55:07;11.10;71.10
9544;DHT22;30418;51.45933468;7.33152330;2024-02-14T04:57:36;11.20;71.30
9544;DHT22;30418;51.45933468;7.33152330;2024-02-14T05:00:06;11.10;71.20
9544;DHT22;30418;51.45933468;7.33152330;2024-02-14T05:02:39;11.20;71.40
9544;DHT22;30418;51.45933468;7.33152330;2024-02-14T05:05:08;11.20;71.50
9544;DHT22;30418;51.45933468;7.33152330;2024-02-14T05:07:37;11.20;71.50
9544;DHT22;30418;51.45933468;7.33152330;2024-02-14T05:10:07;11.20;71.60
9544;DHT22;30418;51.45933468;7.33152330;2024-02-14T05:12:36;11.20;71.70
9544;DHT22;30418;51.45933468;7.33152330;2024-02-14T05:15:05;11.20;71.70
9544;DHT22;30418;51.45933468;7.33152330;2024-02-14T05:17:34;11.20;71.80
9544;DHT22;30418;51.45933468;7.33152330;2024-02-14T05:20:06;11.20;71.80
9544;DHT22;30418;51.45933468;7.33152330;2024-02-14T05:22:36;11.20;72.00
9544;DHT22;30418;51.45933468;7.33152330;2024-02-14T05:25:06;11.20;72.00
9544;DHT22;30418;51.45933468;7.33152330;2024-02-14T05:27:36;11.20;72.00
9544;DHT22;30418;51.45933468;7.33152330;2024-02-14T05:30:06;11.20;72.10
9544;DHT22;30418;51.45933468;7.33152330;2024-02-14T05:32:36;11.20;72.30
9544;DHT22;30418;51.45933468;7.33152330;2024-02-14T05:35:08;11.20;72.20
9544;DHT22;30418;51.45933468;7.33152330;2024-02-14T05:37:37;11.20;72.40
9544;DHT22;30418;51.45933468;7.33152330;2024-02-14T05:40:07;11.20;72.40
9544;DHT22;30418;51.45933468;7.33152330;2024-02-14T05:42:36;11.30;72.50
9544;DHT22;30418;51.45933468;7.33152330;2024-02-14T05:45:05;11.30;72.50
9544;DHT22;30418;51.45933468;7.33152330;2024-02-14T05:47:36;11.30;72.50
9544;DHT22;30418;51.45933468;7.33152330;2024-02-14T05:50:08;11.30;72.50
9544;DHT22;30418;51.45933468;7.33152330;2024-02-14T05:52:38;11.30;72.60
9544;DHT22;30418;51.45933468;7.33152330;2024-02-14T05:55:06;11.30;72.60
9544;DHT22;30418;51.45933468;7.33152330;2024-02-14T05:57:36;11.30;72.80
9544;DHT22;30418;51.45933468;7.33152330;2024-02-14T06:00:05;11.30;72.80
9544;DHT22;30418;51.45933468;7.33152330;2024-02-14T06:02:38;11.30;72.90
9544;DHT22;30418;51.45933468;7.33152330;2024-02-14T06:05:09;11.30;72.90
9544;DHT22;30418;51.45933468;7.33152330;2024-02-14T06:07:38;11.30;72.90
9544;DHT22;30418;51.45933468;7.33152330;2024-02-14T06:10:07;11.30;72.90
9544;DHT22;30418;51.45933468;7.33152330;2024-02-14T06:12:37;11.30;73.00
9544;DHT22;30418;51.45933468;7.33152330;2024-02-14T06:15:08;11.30;73.00
9544;DHT22;30418;51.45933468;7.33152330;2024-02-14T06:17:37;11.40;73.20
9544;DHT22;30418;51.45933468;7.33152330;2024-02-14T06:20:09;11.40;73.10
9544;DHT22;30418;51.45933468;7.33152330;2024-02-14T06:22:40;11.40;73.20
9544;DHT22;30418;51.45933468;7.33152330;2024-02-14T06:25:19;11.40;73.20
9544;DHT22;30418;51.45933468;7.33152330;2024-02-14T06:27:48;11.40;73.20
9544;DHT22;30418;51.45933468;7.33152330;2024-02-14T06:30:17;11.40;73.20
9544;DHT22;30418;51.45933468;7.33152330;2024-02-14T06:32:45;11.40;73.20
9544;DHT22;30418;51.45933468;7.33152330;2024-02-14T06:35:15;11.40;73.30
9544;DHT22;30418;51.45933468;7.33152330;2024-02-14T06:37:47;11.40;73.40
9544;DHT22;30418;51.45933468;7.33152330;2024-02-14T06:40:29;11.40;73.30
9544;DHT22;30418;51.45933468;7.33152330;2024-02-14T06:42:57;11.40;73.40
9544;DHT22;30418;51.45933468;7.33152330;2024-02-14T06:45:27;11.40;73.50
9544;DHT22;30418;51.45933468;7.33152330;2024-02-14T06:47:56;11.40;73.50
9544;DHT22;30418;51.45933468;7.33152330;2024-02-14T06:50:26;11.40;73.60
9544;DHT22;30418;51.45933468;7.33152330;2024-02-14T06:52:56;11.40;73.70
9544;DHT22;30418;51.45933468;7.33152330;2024-02-14T06:55:27;11.40;73.60
9544;DHT22;30418;51.45933468;7.33152330;2024-02-14T06:57:57;11.40;73.70
9544;DHT22;30418;51.45933468;7.33152330;2024-02-14T07:00:26;11.40;73.70
9544;DHT22;30418;51.45933468;7.33152330;2024-02-14T07:02:56;11.40;73.70
9544;DHT22;30418;51.45933468;7.33152330;2024-02-14T07:05:26;11.40;73.80
9544;DHT22;30418;51.45933468;7.33152330;2024-02-14T07:07:56;11.40;73.90
9544;DHT22;30418;51.45933468;7.33152330;2024-02-14T07:10:25;11.40;73.90
9544;DHT22;30418;51.45933468;7.33152330;2024-02-14T07:12:53;11.40;73.90
9544;DHT22;30418;51.45933468;7.33152330;2024-02-14T07:15:22;11.40;73.90
9544;DHT22;30418;51.45933468;7.33152330;2024-02-14T07:17:53;11.40;74.00
9544;DHT22;30418;51.45933468;7.33152330;2024-02-14T07:20:22;11.50;74.10
9544;DHT22;30418;51.45933468;7.33152330;2024-02-14T07:22:54;11.50;74.20
9544;DHT22;30418;51.45933468;7.33152330;2024-02-14T07:25:24;11.50;75.10
9544;DHT22;30418;51.45933468;7.33152330;2024-02-14T07:27:52;11.40;74.10
9544;DHT22;30418;51.45933468;7.33152330;2024-02-14T07:30:21;11.50;74.30
9544;DHT22;30418;51.45933468;7.33152330;2024-02-14T07:32:49;11.50;74.30
9544;DHT22;30418;51.45933468;7.33152330;2024-02-14T07:35:18;11.50;75.20
9544;DHT22;30418;51.45933468;7.33152330;2024-02-14T07:37:47;11.50;74.40
9544;DHT22;30418;51.45933468;7.33152330;2024-02-14T07:40:17;11.50;74.40
9544;DHT22;30418;51.45933468;7.33152330;2024-02-14T07:42:46;11.50;74.50
9544;DHT22;30418;51.45933468;7.33152330;2024-02-14T07:45:15;11.50;74.50
9544;DHT22;30418;51.45933468;7.33152330;2024-02-14T07:47:44;11.50;74.50
9544;DHT22;30418;51.45933468;7.33152330;2024-02-14T07:50:13;11.50;74.50
9544;DHT22;30418;51.45933468;7.33152330;2024-02-14T07:52:42;11.50;74.50
9544;DHT22;30418;51.45933468;7.33152330;2024-02-14T07:55:11;11.60;74.70
9544;DHT22;30418;51.45933468;7.33152330;2024-02-14T07:57:42;11.60;74.70
9544;DHT22;30418;51.45933468;7.33152330;2024-02-14T08:00:11;11.60;74.80
9544;DHT22;30418;51.45933468;7.33152330;2024-02-14T08:02:46;11.60;74.80
9544;DHT22;30418;51.45933468;7.33152330;2024-02-14T08:05:14;11.60;74.80
9544;DHT22;30418;51.45933468;7.33152330;2024-02-14T08:07:44;11.60;74.80
9544;DHT22;30418;51.45933468;7.33152330;2024-02-14T08:10:13;11.60;74.80
9544;DHT22;30418;51.45933468;7.33152330;2024-02-14T08:12:43;11.60;74.90
9544;DHT22;30418;51.45933468;7.33152330;2024-02-14T08:15:12;11.60;75.00
9544;DHT22;30418;51.45933468;7.33152330;2024-02-14T08:17:41;11.60;75.00
9544;DHT22;30418;51.45933468;7.33152330;2024-02-14T08:20:13;11.70;75.10
9544;DHT22;30418;51.45933468;7.33152330;2024-02-14T08:22:42;11.70;75.10
9544;DHT22;30418;51.45933468;7.33152330;2024-02-14T08:25:11;11.60;75.00
9544;DHT22;30418;51.45933468;7.33152330;2024-02-14T08:27:39;11.60;75.10
9544;DHT22;30418;51.45933468;7.33152330;2024-02-14T08:30:10;11.70;75.20
9544;DHT22;30418;51.45933468;7.33152330;2024-02-14T08:32:40;11.70;75.30
9544;DHT22;30418;51.45933468;7.33152330;2024-02-14T08:35:09;11.70;75.20
9544;DHT22;30418;51.45933468;7.33152330;2024-02-14T08:37:40;11.70;75.40
9544;DHT22;30418;51.45933468;7.33152330;2024-02-14T08:40:10;11.70;75.40
9544;DHT22;30418;51.45933468;7.33152330;2024-02-14T08:42:40;11.70;75.50
9544;DHT22;30418;51.45933468;7.33152330;2024-02-14T08:45:10;11.70;75.60
9544;DHT22;30418;51.45933468;7.33152330;2024-02-14T08:47:39;11.80;75.80
9544;DHT22;30418;51.45933468;7.33152330;2024-02-14T08:50:08;11.80;75.80
9544;DHT22;30418;51.45933468;7.33152330;2024-02-14T08:52:37;11.80;75.80
9544;DHT22;30418;51.45933468;7.33152330;2024-02-14T08:55:06;11.80;75.80
9544;DHT22;30418;51.45933468;7.33152330;2024-02-14T08:57:41;11.80;75.80
9544;DHT22;30418;51.45933468;7.33152330;2024-02-14T09:00:13;11.90;75.80
9544;DHT22;30418;51.45933468;7.33152330;2024-02-14T09:02:47;11.90;76.00
9544;DHT22;30418;51.45933468;7.33152330;2024-02-14T09:05:16;11.90;75.90
9544;DHT22;30418;51.45933468;7.33152330;2024-02-14T09:07:46;11.90;75.90
9544;DHT22;30418;51.45933468;7.33152330;2024-02-14T09:10:14;11.90;76.00
9544;DHT22;30418;51.45933468;7.33152330;2024-02-14T09:12:43;11.90;76.00
9544;DHT22;30418;51.45933468;7.33152330;2024-02-14T09:15:13;12.00;76.10
9544;DHT22;30418;51.45933468;7.33152330;2024-02-14T09:17:42;12.00;76.30
9544;DHT22;30418;51.45933468;7.33152330;2024-02-14T09:20:11;12.00;76.20
9544;DHT22;30418;51.45933468;7.33152330;2024-02-14T09:22:41;12.00;76.30
9544;DHT22;30418;51.45933468;7.33152330;2024-02-14T09:25:10;12.00;76.20
9544;DHT22;30418;51.45933468;7.33152330;2024-02-14T09:27:38;12.00;76.20
9544;DHT22;30418;51.45933468;7.33152330;2024-02-14T09:30:08;12.00;76.20
9544;DHT22;30418;51.45933468;7.33152330;2024-02-14T09:32:55;12.10;76.40
9544;DHT22;30418;51.45933468;7.33152330;2024-02-14T09:35:24;12.10;76.40
9544;DHT22;30418;51.45933468;7.33152330;2024-02-14T09:37:53;12.10;76.30
9544;DHT22;30418;51.45933468;7.33152330;2024-02-14T09:40:21;12.10;76.30
9544;DHT22;30418;51.45933468;7.33152330;2024-02-14T09:42:54;12.10;76.30
9544;DHT22;30418;51.45933468;7.33152330;2024-02-14T09:45:25;12.10;76.40
9544;DHT22;30418;51.45933468;7.33152330;2024-02-14T09:47:56;12.10;77.10
9544;DHT22;30418;51.45933468;7.33152330;2024-02-14T09:50:26;12.20;76.40
9544;DHT22;30418;51.45933468;7.33152330;2024-02-14T09:52:58;12.20;76.50
9544;DHT22;30418;51.45933468;7.33152330;2024-02-14T09:55:27;12.20;76.40
9544;DHT22;30418;51.45933468;7.33152330;2024-02-14T09:57:56;12.20;76.40
9544;DHT22;30418;51.45933468;7.33152330;2024-02-14T10:00:27;12.20;76.40
9544;DHT22;30418;51.45933468;7.33152330;2024-02-14T10:02:57;12.20;76.40
9544;DHT22;30418;51.45933468;7.33152330;2024-02-14T10:05:26;12.20;76.50
9544;DHT22;30418;51.45933468;7.33152330;2024-02-14T10:07:56;12.20;76.50
9544;DHT22;30418;51.45933468;7.33152330;2024-02-14T10:10:26;12.20;76.50
9544;DHT22;30418;51.45933468;7.33152330;2024-02-14T10:12:55;12.20;76.60
9544;DHT22;30418;51.45933468;7.33152330;2024-02-14T10:15:24;12.20;76.50
9544;DHT22;30418;51.45933468;7.33152330;2024-02-14T10:17:53;12.20;76.60
9544;DHT22;30418;51.45933468;7.33152330;2024-02-14T10:20:23;12.20;76.60
9544;DHT22;30418;51.45933468;7.33152330;2024-02-14T10:23:01;12.20;76.60
9544;DHT22;30418;51.45933468;7.33152330;2024-02-14T10:25:30;12.20;76.70
9544;DHT22;30418;51.45933468;7.33152330;2024-02-14T10:28:04;12.20;76.60
9544;DHT22;30418;51.45933468;7.33152330;2024-02-14T10:30:36;12.30;77.00
9544;DHT22;30418;51.45933468;7.33152330;2024-02-14T10:33:07;12.30;76.80
9544;DHT22;30418;51.45933468;7.33152330;2024-02-14T10:35:52;12.30;76.90
9544;DHT22;30418;51.45933468;7.33152330;2024-02-14T10:38:30;12.30;77.00
9544;DHT22;30418;51.45933468;7.33152330;2024-02-14T10:41:00;12.30;76.90
9544;DHT22;30418;51.45933468;7.33152330;2024-02-14T10:43:30;12.40;77.10
9544;DHT22;30418;51.45933468;7.33152330;2024-02-14T10:46:02;12.40;77.10
9544;DHT22;30418;51.45933468;7.33152330;2024-02-14T10:48:37;12.40;77.20
9544;DHT22;30418;51.45933468;7.33152330;2024-02-14T10:51:08;12.40;77.40
9544;DHT22;30418;51.45933468;7.33152330;2024-02-14T10:53:45;12.40;77.50
9544;DHT22;30418;51.45933468;7.33152330;2024-02-14T10:56:18;12.40;77.50
9544;DHT22;30418;51.45933468;7.33152330;2024-02-14T10:58:47;12.50;77.50
9544;DHT22;30418;51.45933468;7.33152330;2024-02-14T11:01:17;12.50;77.40
9544;DHT22;30418;51.45933468;7.33152330;2024-02-14T11:03:48;12.50;77.40
9544;DHT22;30418;51.45933468;7.33152330;2024-02-14T11:06:19;12.50;77.40
9544;DHT22;30418;51.45933468;7.33152330;2024-02-14T11:08:56;12.50;77.50
9544;DHT22;30418;51.45933468;7.33152330;2024-02-14T11:11:27;12.60;77.80
9544;DHT22;30418;51.45933468;7.33152330;2024-02-14T11:13:57;12.50;77.60
9544;DHT22;30418;51.45933468;7.33152330;2024-02-14T11:16:26;12.60;77.70
9544;DHT22;30418;51.45933468;7.33152330;2024-02-14T11:19:06;12.60;77.70
9544;DHT22;30418;51.45933468;7.33152330;2024-02-14T11:21:40;12.60;78.00
9544;DHT22;30418;51.45933468;7.33152330;2024-02-14T11:24:11;12.60;77.70
9544;DHT22;30418;51.45933468;7.33152330;2024-02-14T11:26:47;12.60;77.70
9544;DHT22;30418;51.45933468;7.33152330;2024-02-14T11:29:18;12.60;77.90
9544;DHT22;30418;51.45933468;7.33152330;2024-02-14T11:31:58;12.70;77.90
9544;DHT22;30418;51.45933468;7.33152330;2024-02-14T11:34:28;12.70;78.10
9544;DHT22;30418;51.45933468;7.33152330;2024-02-14T11:37:05;12.70;77.90
9544;DHT22;30418;51.45933468;7.33152330;2024-02-14T11:39:34;12.70;77.90
9544;DHT22;30418;51.45933468;7.33152330;2024-02-14T11:42:02;12.70;77.80
9544;DHT22;30418;51.45933468;7.33152330;2024-02-14T11:44:31;12.70;77.90
9544;DHT22;30418;51.45933468;7.33152330;2024-02-14T11:47:00;12.70;78.00
9544;DHT22;30418;51.45933468;7.33152330;2024-02-14T11:49:31;12.80;78.10
9544;DHT22;30418;51.45933468;7.33152330;2024-02-14T11:52:00;12.80;78.20
9544;DHT22;30418;51.45933468;7.33152330;2024-02-14T11:54:32;12.80;78.10
9544;DHT22;30418;51.45933468;7.33152330;2024-02-14T11:57:01;12.80;78.10
9544;DHT22;30418;51.45933468;7.33152330;2024-02-14T11:59:30;12.80;78.00
9544;DHT22;30418;51.45933468;7.33152330;2024-02-14T12:01:59;12.80;78.00
9544;DHT22;30418;51.45933468;7.33152330;2024-02-14T12:04:30;12.80;78.10
9544;DHT22;30418;51.45933468;7.33152330;2024-02-14T12:06:59;12.80;78.10
9544;DHT22;30418;51.45933468;7.33152330;2024-02-14T12:09:28;12.80;78.10
9544;DHT22;30418;51.45933468;7.33152330;2024-02-14T12:11:58;12.90;78.20
9544;DHT22;30418;51.45933468;7.33152330;2024-02-14T12:14:27;12.80;78.20
9544;DHT22;30418;51.45933468;7.33152330;2024-02-14T12:16:59;12.90;78.30
9544;DHT22;30418;51.45933468;7.33152330;2024-02-14T12:19:30;12.90;78.50
9544;DHT22;30418;51.45933468;7.33152330;2024-02-14T12:22:00;12.90;78.40
9544;DHT22;30418;51.45933468;7.33152330;2024-02-14T12:24:29;12.90;78.40
9544;DHT22;30418;51.45933468;7.33152330;2024-02-14T12:26:59;12.90;78.40
9544;DHT22;30418;51.45933468;7.33152330;2024-02-14T12:29:28;12.90;78.40
9544;DHT22;30418;51.45933468;7.33152330;2024-02-14T12:32:04;12.90;78.30
9544;DHT22;30418;51.45933468;7.33152330;2024-02-14T12:34:33;13.00;78.70
9544;DHT22;30418;51.45933468;7.33152330;2024-02-14T12:37:03;13.00;78.50
9544;DHT22;30418;51.45933468;7.33152330;2024-02-14T12:39:32;13.00;78.40
9544;DHT22;30418;51.45933468;7.33152330;2024-02-14T12:42:02;13.00;78.40
9544;DHT22;30418;51.45933468;7.33152330;2024-02-14T12:44:31;13.00;78.50
9544;DHT22;30418;51.45933468;7.33152330;2024-02-14T12:47:00;13.00;78.40
9544;DHT22;30418;51.45933468;7.33152330;2024-02-14T12:49:28;13.00;78.40
9544;DHT22;30418;51.45933468;7.33152330;2024-02-14T12:51:58;13.00;78.50
9544;DHT22;30418;51.45933468;7.33152330;2024-02-14T12:54:31;13.00;78.60
9544;DHT22;30418;51.45933468;7.33152330;2024-02-14T12:57:02;13.00;78.70
9544;DHT22;30418;51.45933468;7.33152330;2024-02-14T12:59:31;13.10;79.00
9544;DHT22;30418;51.45933468;7.33152330;2024-02-14T13:02:00;13.10;79.00
9544;DHT22;30418;51.45933468;7.33152330;2024-02-14T13:04:30;13.10;79.00
9544;DHT22;30418;51.45933468;7.33152330;2024-02-14T13:06:58;13.10;79.90
9544;DHT22;30418;51.45933468;7.33152330;2024-02-14T13:09:27;13.10;79.10
9544;DHT22;30418;51.45933468;7.33152330;2024-02-14T13:11:56;13.10;79.10
9544;DHT22;30418;51.45933468;7.33152330;2024-02-14T13:14:26;13.10;79.10
9544;DHT22;30418;51.45933468;7.33152330;2024-02-14T13:16:55;13.20;79.30
9544;DHT22;30418;51.45933468;7.33152330;2024-02-14T13:19:24;13.20;79.20
9544;DHT22;30418;51.45933468;7.33152330;2024-02-14T13:21:53;13.20;79.10
9544;DHT22;30418;51.45933468;7.33152330;2024-02-14T13:24:22;13.20;79.10
9544;DHT22;30418;51.45933468;7.33152330;2024-02-14T13:26:51;13.20;79.10
9544;DHT22;30418;51.45933468;7.33152330;2024-02-14T13:29:20;13.20;79.10
9544;DHT22;30418;51.45933468;7.33152330;2024-02-14T13:31:50;13.30;79.30
9544;DHT22;30418;51.45933468;7.33152330;2024-02-14T13:34:19;13.30;79.30
9544;DHT22;30418;51.45933468;7.33152330;2024-02-14T13:36:48;13.20;79.10
9544;DHT22;30418;51.45933468;7.33152330;2024-02-14T13:39:16;13.20;79.00
9544;DHT22;30418;51.45933468;7.33152330;2024-02-14T13:41:45;13.20;79.80
9544;DHT22;30418;51.45933468;7.33152330;2024-02-14T13:44:14;13.30;79.10
9544;DHT22;30418;51.45933468;7.33152330;2024-02-14T13:46:45;13.30;79.20
9544;DHT22;30418;51.45933468;7.33152330;2024-02-14T13:49:15;13.20;79.10